createdAt,value
2019-05-23T00:02:20.063Z,13.30
2019-05-23T00:05:25.013Z,13.30
2019-05-23T00:08:13.569Z,13.30
2019-05-23T00:10:55.077Z,13.30
2019-05-23T00:13:43.076Z,13.30
2019-05-23T00:16:14.465Z,13.10
2019-05-23T00:18:43.127Z,13.30
2019-05-23T00:21:11.074Z,13.20
2019-05-23T00:23:40.209Z,13.10
2019-05-23T00:26:09.770Z,13.00
2019-05-23T00:28:38.392Z,12.90
2019-05-23T00:31:15.025Z,12.80
2019-05-23T00:33:44.648Z,12.80
2019-05-23T00:36:13.531Z,12.70
2019-05-23T00:38:41.590Z,12.60
2019-05-23T00:41:10.566Z,12.60
2019-05-23T00:43:40.413Z,12.50
2019-05-23T00:46:08.969Z,12.40
2019-05-23T00:48:38.594Z,12.30
2019-05-23T00:51:07.775Z,12.40
2019-05-23T00:53:36.169Z,12.30
2019-05-23T00:56:03.962Z,12.30
2019-05-23T00:58:32.332Z,12.30
2019-05-23T01:01:00.957Z,12.30
2019-05-23T01:03:30.757Z,12.30
2019-05-23T01:06:00.459Z,12.20
2019-05-23T01:08:30.047Z,12.10
2019-05-23T01:10:58.569Z,12.00
2019-05-23T01:13:27.865Z,12.10
2019-05-23T01:15:55.532Z,12.30
2019-05-23T01:18:24.092Z,12.30
2019-05-23T01:21:29.605Z,12.20
2019-05-23T01:24:09.806Z,12.20
2019-05-23T01:26:37.678Z,12.20
2019-05-23T01:29:05.571Z,12.30
2019-05-23T01:31:36.245Z,12.40
2019-05-23T01:34:04.886Z,12.50
2019-05-23T01:36:32.843Z,12.50
2019-05-23T01:39:01.335Z,12.50
2019-05-23T01:41:29.957Z,12.40
2019-05-23T01:43:57.929Z,12.20
2019-05-23T01:46:25.889Z,12.20
2019-05-23T01:48:54.886Z,12.30
2019-05-23T01:51:23.522Z,12.40
2019-05-23T01:53:51.435Z,12.30
2019-05-23T01:56:19.097Z,12.20
2019-05-23T01:58:46.841Z,12.10
2019-05-23T02:01:14.958Z,11.80
2019-05-23T02:03:43.915Z,11.80
2019-05-23T02:06:12.661Z,11.70
2019-05-23T02:08:40.563Z,11.60
2019-05-23T02:11:10.282Z,11.50
2019-05-23T02:13:38.445Z,11.50
2019-05-23T02:16:06.321Z,11.60
2019-05-23T02:18:34.750Z,11.50
2019-05-23T02:21:04.712Z,11.70
2019-05-23T02:23:33.690Z,11.70
2019-05-23T02:26:02.040Z,11.60
2019-05-23T02:28:30.310Z,11.60
2019-05-23T02:30:58.753Z,11.60
2019-05-23T02:33:26.870Z,11.60
2019-05-23T02:35:55.422Z,11.70
2019-05-23T02:38:34.048Z,11.70
2019-05-23T02:41:09.280Z,11.60
2019-05-23T02:43:38.029Z,11.50
2019-05-23T02:46:10.178Z,11.40
2019-05-23T02:48:42.302Z,11.40
2019-05-23T02:51:18.855Z,11.50
2019-05-23T02:53:50.586Z,11.60
2019-05-23T02:56:18.371Z,11.60
2019-05-23T02:59:04.109Z,11.40
2019-05-23T03:02:30.469Z,11.20
2019-05-23T03:04:58.932Z,11.00
2019-05-23T03:07:35.142Z,10.90
2019-05-23T03:10:05.004Z,11.00
2019-05-23T03:12:35.165Z,11.10
2019-05-23T03:15:03.677Z,11.00
2019-05-23T03:17:34.002Z,11.00
2019-05-23T03:20:05.338Z,10.90
2019-05-23T03:22:41.842Z,11.00
2019-05-23T03:25:55.851Z,11.10
2019-05-23T03:28:25.059Z,11.10
2019-05-23T03:31:21.753Z,11.30
2019-05-23T03:33:25.005Z,11.10
2019-05-23T03:35:55.250Z,11.00
2019-05-23T03:38:23.130Z,11.00
2019-05-23T03:40:51.818Z,11.10
2019-05-23T03:43:19.966Z,11.20
2019-05-23T03:45:50.933Z,11.20
2019-05-23T03:48:19.905Z,11.30
2019-05-23T03:50:48.303Z,11.20
2019-05-23T03:53:16.450Z,11.00
2019-05-23T03:55:47.020Z,10.70
2019-05-23T03:58:16.639Z,10.50
2019-05-23T04:00:50.380Z,10.50
2019-05-23T04:03:18.389Z,10.60
2019-05-23T04:05:47.292Z,10.60
2019-05-23T04:08:16.338Z,10.70
2019-05-23T04:10:45.194Z,10.80
2019-05-23T04:13:14.946Z,10.90
2019-05-23T04:15:44.629Z,10.90
2019-05-23T04:18:14.155Z,10.70
2019-05-23T04:20:42.530Z,10.70
2019-05-23T04:23:10.559Z,10.60
2019-05-23T04:25:38.457Z,10.50
2019-05-23T04:28:06.060Z,10.50
2019-05-23T04:30:33.708Z,10.60
2019-05-23T04:33:01.478Z,10.60
2019-05-23T04:35:30.127Z,10.70
2019-05-23T04:37:58.751Z,10.80
2019-05-23T04:40:27.897Z,11.00
2019-05-23T04:42:55.701Z,11.20
2019-05-23T04:45:23.821Z,11.30
2019-05-23T04:47:51.641Z,11.30
2019-05-23T04:50:19.483Z,11.20
2019-05-23T04:52:47.634Z,11.30
2019-05-23T04:55:18.452Z,11.30
2019-05-23T04:57:46.213Z,11.20
2019-05-23T05:00:16.556Z,11.20
2019-05-23T05:02:44.475Z,11.20
2019-05-23T05:05:14.070Z,11.30
2019-05-23T05:07:42.130Z,11.30
2019-05-23T05:10:12.617Z,11.40
2019-05-23T05:12:40.665Z,11.50
2019-05-23T05:15:08.929Z,11.50
2019-05-23T05:17:36.843Z,11.70
2019-05-23T05:20:05.004Z,11.70
2019-05-23T05:22:32.830Z,11.70
2019-05-23T05:25:00.565Z,11.70
2019-05-23T05:27:30.230Z,11.80
2019-05-23T05:30:07.246Z,11.90
2019-05-23T05:32:44.782Z,12.00
2019-05-23T05:35:05.431Z,12.10
2019-05-23T05:37:33.259Z,12.30
2019-05-23T05:40:01.073Z,12.40
2019-05-23T05:42:29.634Z,12.50
2019-05-23T05:44:57.675Z,12.70
2019-05-23T05:47:25.958Z,12.80
2019-05-23T05:49:53.589Z,12.90
2019-05-23T05:52:21.672Z,13.00
2019-05-23T05:54:49.425Z,13.10
2019-05-23T05:57:17.090Z,13.30
2019-05-23T05:59:44.742Z,13.40
2019-05-23T06:02:13.234Z,13.50
2019-05-23T06:04:41.840Z,13.60
2019-05-23T06:07:33.602Z,13.80
2019-05-23T06:10:04.954Z,13.90
2019-05-23T06:12:32.598Z,14.00
2019-05-23T06:15:00.245Z,14.10
2019-05-23T06:17:28.585Z,14.20
2019-05-23T06:19:56.206Z,14.20
2019-05-23T06:22:25.197Z,14.30
2019-05-23T06:24:56.085Z,14.40
2019-05-23T06:27:23.767Z,14.40
2019-05-23T06:29:53.213Z,14.30
2019-05-23T06:32:23.520Z,14.50
2019-05-23T06:34:51.874Z,14.50
2019-05-23T06:37:21.602Z,14.60
2019-05-23T06:39:49.461Z,14.70
2019-05-23T06:42:17.736Z,14.80
2019-05-23T06:44:47.241Z,15.00
2019-05-23T06:47:14.923Z,15.20
2019-05-23T06:49:42.614Z,15.30
2019-05-23T06:52:12.202Z,15.50
2019-05-23T06:54:41.686Z,15.60
2019-05-23T06:57:09.516Z,15.70
2019-05-23T06:59:39.293Z,16.00
2019-05-23T07:02:06.959Z,16.10
2019-05-23T07:04:35.953Z,16.30
2019-05-23T07:07:04.834Z,16.60
2019-05-23T07:09:32.505Z,16.90
2019-05-23T07:12:00.963Z,16.80
2019-05-23T07:14:30.058Z,17.00
2019-05-23T07:16:57.815Z,17.10
2019-05-23T07:19:25.610Z,17.20
2019-05-23T07:21:53.989Z,17.10
2019-05-23T07:24:23.437Z,17.20
2019-05-23T07:26:52.213Z,17.30
2019-05-23T07:29:19.956Z,17.40
2019-05-23T07:31:48.840Z,17.50
2019-05-23T07:34:16.801Z,17.50
2019-05-23T07:36:44.957Z,17.70
2019-05-23T07:39:12.925Z,17.70
2019-05-23T07:41:40.902Z,17.50
2019-05-23T07:44:09.954Z,17.60
2019-05-23T07:46:37.774Z,17.70
2019-05-23T07:49:05.996Z,17.90
2019-05-23T07:51:33.628Z,18.00
2019-05-23T07:54:14.237Z,18.00
2019-05-23T07:56:42.708Z,17.80
2019-05-23T07:59:10.342Z,18.10
2019-05-23T08:01:42.078Z,18.40
2019-05-23T08:04:21.325Z,18.70
2019-05-23T08:06:39.734Z,18.70
2019-05-23T08:09:09.043Z,18.70
2019-05-23T08:11:37.613Z,18.70
2019-05-23T08:14:05.499Z,18.90
2019-05-23T08:16:33.130Z,19.20
2019-05-23T08:19:00.811Z,19.30
2019-05-23T08:21:28.702Z,19.40
2019-05-23T08:23:56.382Z,19.60
2019-05-23T08:26:25.857Z,19.60
2019-05-23T08:29:23.690Z,19.80
2019-05-23T08:31:23.470Z,20.10
2019-05-23T08:33:51.120Z,20.30
2019-05-23T08:36:19.090Z,20.50
2019-05-23T08:38:47.589Z,20.50
2019-05-23T08:41:15.253Z,20.60
2019-05-23T08:43:43.270Z,20.60
2019-05-23T08:46:11.865Z,20.90
2019-05-23T08:48:40.674Z,21.20
2019-05-23T08:51:08.542Z,21.20
2019-05-23T08:53:36.514Z,21.20
2019-05-23T08:56:17.439Z,21.20
2019-05-23T08:58:33.810Z,21.30
2019-05-23T09:01:01.922Z,21.50
2019-05-23T09:03:29.978Z,21.60
2019-05-23T09:05:59.211Z,21.60
2019-05-23T09:08:26.988Z,21.70
2019-05-23T09:10:55.543Z,21.60
2019-05-23T09:13:23.526Z,21.80
2019-05-23T09:15:52.991Z,21.90
2019-05-23T09:18:21.121Z,21.90
2019-05-23T09:20:50.621Z,22.00
2019-05-23T09:23:18.705Z,22.20
2019-05-23T09:25:46.357Z,22.40
2019-05-23T09:28:14.356Z,22.50
2019-05-23T09:30:43.054Z,22.50
2019-05-23T09:33:10.826Z,22.10
2019-05-23T09:35:39.503Z,22.00
2019-05-23T09:38:07.583Z,22.20
2019-05-23T09:40:35.844Z,22.20
2019-05-23T09:43:05.658Z,22.10
2019-05-23T09:45:34.317Z,22.10
2019-05-23T09:48:02.397Z,22.20
2019-05-23T09:50:30.912Z,22.40
2019-05-23T09:52:59.417Z,22.60
2019-05-23T09:55:27.169Z,22.80
2019-05-23T09:57:54.893Z,23.10
2019-05-23T10:00:25.269Z,23.20
2019-05-23T10:02:52.986Z,23.00
2019-05-23T10:05:40.198Z,22.80
2019-05-23T10:07:50.493Z,22.70
2019-05-23T10:10:18.193Z,22.60
2019-05-23T10:12:46.015Z,22.30
2019-05-23T10:15:27.041Z,22.20
2019-05-23T10:17:54.745Z,22.40
2019-05-23T10:20:26.782Z,22.50
2019-05-23T10:22:54.486Z,22.50
2019-05-23T10:25:22.134Z,22.50
2019-05-23T10:27:49.830Z,22.60
2019-05-23T10:30:18.625Z,22.80
2019-05-23T10:32:46.367Z,23.00
2019-05-23T10:35:15.766Z,23.20
2019-05-23T10:37:43.408Z,23.30
2019-05-23T10:40:11.234Z,23.50
2019-05-23T10:42:39.197Z,23.70
2019-05-23T10:45:08.116Z,23.90
2019-05-23T10:47:35.858Z,24.00
2019-05-23T10:50:08.374Z,24.10
2019-05-23T10:52:34.133Z,24.00
2019-05-23T10:55:03.977Z,24.00
2019-05-23T10:57:31.910Z,24.00
2019-05-23T10:59:59.641Z,24.20
2019-05-23T11:02:27.585Z,24.30
2019-05-23T11:04:56.997Z,24.20
2019-05-23T11:07:25.022Z,24.20
2019-05-23T11:09:53.310Z,24.20
2019-05-23T11:12:21.085Z,24.10
2019-05-23T11:14:49.944Z,24.10
2019-05-23T11:17:17.604Z,24.20
2019-05-23T11:19:45.274Z,24.20
2019-05-23T11:22:13.033Z,24.20
2019-05-23T11:24:41.704Z,24.30
2019-05-23T11:27:09.459Z,24.30
2019-05-23T11:29:37.117Z,24.20
2019-05-23T11:32:06.851Z,24.20
2019-05-23T11:34:35.098Z,24.20
2019-05-23T11:37:02.769Z,24.20
2019-05-23T11:39:30.809Z,24.30
2019-05-23T11:42:00.361Z,24.40
2019-05-23T11:44:28.256Z,24.30
2019-05-23T11:46:55.962Z,24.40
2019-05-23T11:49:23.598Z,24.40
2019-05-23T11:51:51.507Z,24.40
2019-05-23T11:54:19.897Z,24.50
2019-05-23T11:56:48.310Z,24.50
2019-05-23T11:59:16.174Z,24.60
2019-05-23T12:02:03.078Z,24.50
2019-05-23T12:04:37.552Z,24.60
2019-05-23T12:07:10.171Z,24.70
2019-05-23T12:09:37.863Z,24.90
2019-05-23T12:12:05.593Z,24.90
2019-05-23T12:14:34.087Z,24.80
2019-05-23T12:17:04.235Z,24.80
2019-05-23T12:19:32.739Z,24.70
2019-05-23T12:22:00.432Z,24.90
2019-05-23T12:24:28.331Z,24.90
2019-05-23T12:26:57.350Z,24.80
2019-05-23T12:29:25.239Z,25.10
2019-05-23T12:31:53.480Z,25.10
2019-05-23T12:34:21.182Z,25.30
2019-05-23T12:36:49.224Z,25.20
2019-05-23T12:39:17.066Z,25.10
2019-05-23T12:41:44.841Z,25.10
2019-05-23T12:44:16.845Z,25.30
2019-05-23T12:46:43.193Z,25.30
2019-05-23T12:49:25.068Z,25.30
2019-05-23T12:51:54.145Z,25.20
2019-05-23T12:54:24.183Z,25.20
2019-05-23T12:56:53.073Z,25.30
2019-05-23T12:59:21.012Z,25.50
2019-05-23T13:01:50.177Z,25.60
2019-05-23T13:04:17.862Z,25.40
2019-05-23T13:06:46.750Z,25.50
2019-05-23T13:09:15.085Z,25.60
2019-05-23T13:11:42.875Z,25.60
2019-05-23T13:14:10.817Z,25.50
2019-05-23T13:16:38.887Z,25.50
2019-05-23T13:19:06.970Z,25.20
2019-05-23T13:21:34.633Z,24.80
2019-05-23T13:24:02.369Z,24.90
2019-05-23T13:26:30.029Z,25.10
2019-05-23T13:28:57.697Z,25.30
2019-05-23T13:31:25.670Z,25.40
2019-05-23T13:33:53.970Z,25.70
2019-05-23T13:36:21.682Z,25.70
2019-05-23T13:38:49.388Z,25.90
2019-05-23T13:41:18.647Z,26.00
2019-05-23T13:43:47.873Z,25.90
2019-05-23T13:46:15.802Z,25.90
2019-05-23T13:48:43.943Z,26.00
2019-05-23T13:51:11.853Z,26.20
2019-05-23T13:53:39.930Z,26.20
2019-05-23T13:56:07.815Z,26.10
2019-05-23T13:58:35.890Z,26.10
2019-05-23T14:01:08.824Z,25.90
2019-05-23T14:03:34.878Z,25.60
2019-05-23T14:06:04.401Z,25.50
2019-05-23T14:08:32.355Z,25.50
2019-05-23T14:11:00.003Z,25.60
2019-05-23T14:13:28.512Z,25.80
2019-05-23T14:15:56.430Z,25.90
2019-05-23T14:18:24.766Z,25.90
2019-05-23T14:20:52.752Z,25.90
2019-05-23T14:23:24.870Z,25.90
2019-05-23T14:25:52.985Z,26.00
2019-05-23T14:28:20.873Z,26.00
2019-05-23T14:30:53.905Z,25.90
2019-05-23T14:33:39.622Z,25.90
2019-05-23T14:36:13.579Z,25.90
2019-05-23T14:38:41.278Z,25.70
2019-05-23T14:41:09.063Z,25.70
2019-05-23T14:43:36.707Z,25.70
2019-05-23T14:46:10.119Z,25.80
2019-05-23T14:48:58.147Z,25.70
2019-05-23T14:51:44.411Z,25.70
2019-05-23T14:54:31.670Z,25.40
2019-05-23T14:56:59.356Z,25.40
2019-05-23T14:59:27.837Z,25.50
2019-05-23T15:01:55.991Z,25.70
2019-05-23T15:04:23.857Z,25.80
2019-05-23T15:06:51.542Z,25.70
2019-05-23T15:09:21.500Z,25.90
2019-05-23T15:11:50.422Z,25.80
2019-05-23T15:14:18.189Z,25.70
2019-05-23T15:16:45.842Z,25.70
2019-05-23T15:19:13.486Z,25.80
2019-05-23T15:21:42.486Z,25.90
2019-05-23T15:24:10.337Z,26.10
2019-05-23T15:26:38.237Z,26.00
2019-05-23T15:29:06.091Z,26.00
2019-05-23T15:31:33.808Z,26.00
2019-05-23T15:34:01.614Z,25.90
2019-05-23T15:36:29.349Z,25.90
2019-05-23T15:39:08.720Z,25.90
2019-05-23T15:41:26.661Z,26.00
2019-05-23T15:43:54.338Z,26.10
2019-05-23T15:46:22.101Z,25.90
2019-05-23T15:48:50.110Z,25.80
2019-05-23T15:51:22.362Z,25.80
2019-05-23T15:54:02.297Z,25.60
2019-05-23T15:56:42.423Z,25.60
2019-05-23T15:59:28.148Z,25.70
2019-05-23T16:02:00.753Z,25.60
2019-05-23T16:04:28.744Z,25.60
2019-05-23T16:06:56.820Z,25.70
2019-05-23T16:09:30.123Z,25.60
2019-05-23T16:11:55.117Z,25.50
2019-05-23T16:14:22.921Z,25.50
2019-05-23T16:16:55.592Z,25.40
2019-05-23T16:19:21.713Z,25.40
2019-05-23T16:21:50.406Z,25.40
2019-05-23T16:24:18.151Z,25.40
2019-05-23T16:26:47.907Z,25.30
2019-05-23T16:29:19.384Z,25.20
2019-05-23T16:31:47.074Z,25.20
2019-05-23T16:34:14.744Z,25.10
2019-05-23T16:36:43.573Z,25.30
2019-05-23T16:39:11.294Z,25.30
2019-05-23T16:41:39.094Z,25.40
2019-05-23T16:44:06.798Z,25.40
2019-05-23T16:46:34.669Z,25.30
2019-05-23T16:49:02.310Z,25.40
2019-05-23T16:51:30.188Z,25.30
2019-05-23T16:53:58.560Z,25.20
2019-05-23T16:56:32.701Z,25.20
2019-05-23T16:59:06.854Z,25.30
2019-05-23T17:01:57.014Z,25.20
2019-05-23T17:04:42.177Z,25.00
2019-05-23T17:07:41.589Z,25.00
2019-05-23T17:10:17.013Z,25.00
2019-05-23T17:13:11.626Z,25.00
2019-05-23T17:16:10.880Z,25.10
2019-05-23T17:19:07.294Z,25.10
2019-05-23T17:21:42.951Z,25.10
2019-05-23T17:24:23.525Z,25.00
2019-05-23T17:27:01.704Z,24.90
2019-05-23T17:29:39.880Z,24.60
2019-05-23T17:32:10.007Z,24.60
2019-05-23T17:34:38.229Z,24.50
2019-05-23T17:37:08.272Z,24.50
2019-05-23T17:39:36.656Z,24.70
2019-05-23T17:42:05.030Z,24.70
2019-05-23T17:44:33.021Z,24.70
2019-05-23T17:47:02.040Z,24.70
2019-05-23T17:49:30.008Z,24.70
2019-05-23T17:51:57.898Z,24.60
2019-05-23T17:54:26.082Z,24.70
2019-05-23T17:56:53.932Z,24.60
2019-05-23T17:59:21.755Z,24.50
2019-05-23T18:01:50.421Z,24.50
2019-05-23T18:04:18.630Z,24.30
2019-05-23T18:06:46.693Z,24.20
2019-05-23T18:09:15.338Z,24.10
2019-05-23T18:11:43.416Z,24.00
2019-05-23T18:14:11.583Z,24.00
2019-05-23T18:16:39.987Z,24.00
2019-05-23T18:19:09.272Z,24.10
2019-05-23T18:21:37.121Z,24.10
2019-05-23T18:24:05.579Z,24.00
2019-05-23T18:26:33.626Z,24.00
2019-05-23T18:29:01.397Z,24.00
2019-05-23T18:31:32.103Z,23.90
2019-05-23T18:33:59.963Z,23.80
2019-05-23T18:36:27.821Z,23.80
2019-05-23T18:38:55.546Z,23.70
2019-05-23T18:41:25.297Z,23.60
2019-05-23T18:43:53.999Z,23.40
2019-05-23T18:46:29.881Z,23.20
2019-05-23T18:48:57.879Z,23.10
2019-05-23T18:51:25.721Z,23.00
2019-05-23T18:53:54.072Z,22.80
2019-05-23T18:56:22.106Z,22.60
2019-05-23T18:58:49.881Z,22.50
2019-05-23T19:01:21.922Z,22.30
2019-05-23T19:03:49.616Z,22.10
2019-05-23T19:06:17.329Z,21.80
2019-05-23T19:08:45.483Z,21.70
2019-05-23T19:11:20.758Z,21.40
2019-05-23T19:13:44.013Z,21.30
2019-05-23T19:16:11.883Z,21.20
2019-05-23T19:18:39.953Z,21.00
2019-05-23T19:21:07.649Z,20.80
2019-05-23T19:23:36.087Z,20.50
2019-05-23T19:26:04.519Z,20.30
2019-05-23T19:28:32.294Z,20.20
2019-05-23T19:31:00.153Z,20.00
2019-05-23T19:33:28.241Z,19.80
2019-05-23T19:35:56.391Z,19.60
2019-05-23T19:38:24.678Z,19.40
2019-05-23T19:40:52.955Z,19.20
2019-05-23T19:43:22.509Z,19.20
2019-05-23T19:45:51.027Z,19.10
2019-05-23T19:48:19.406Z,19.10
2019-05-23T19:50:47.175Z,19.10
2019-05-23T19:53:14.819Z,19.00
2019-05-23T19:55:42.546Z,18.90
2019-05-23T19:58:10.369Z,18.80
2019-05-23T20:00:38.107Z,18.60
2019-05-23T20:03:05.952Z,18.60
2019-05-23T20:05:35.948Z,18.60
2019-05-23T20:08:03.876Z,18.50
2019-05-23T20:10:32.645Z,18.50
2019-05-23T20:13:00.550Z,18.50
2019-05-23T20:15:29.061Z,18.30
2019-05-23T20:17:56.723Z,18.30
2019-05-23T20:20:25.085Z,18.20
2019-05-23T20:22:52.785Z,18.10
2019-05-23T20:25:20.694Z,17.90
2019-05-23T20:27:48.427Z,18.00
2019-05-23T20:30:45.534Z,17.90
2019-05-23T20:33:13.461Z,17.80
2019-05-23T20:35:41.153Z,17.50
2019-05-23T20:38:08.874Z,17.40
2019-05-23T20:40:37.219Z,17.40
2019-05-23T20:43:05.929Z,17.40
2019-05-23T20:45:33.753Z,17.40
2019-05-23T20:48:01.628Z,17.30
2019-05-23T20:50:29.259Z,17.20
2019-05-23T20:52:57.082Z,17.30
2019-05-23T20:55:25.146Z,17.50
2019-05-23T20:57:52.878Z,17.70
2019-05-23T21:00:27.753Z,17.50
2019-05-23T21:02:55.884Z,17.20
2019-05-23T21:05:23.650Z,17.20
2019-05-23T21:07:51.397Z,17.00
2019-05-23T21:10:43.920Z,16.80
2019-05-23T21:13:11.938Z,16.70
2019-05-23T21:15:40.959Z,16.80
2019-05-23T21:18:09.057Z,16.80
2019-05-23T21:20:36.841Z,16.90
2019-05-23T21:23:04.667Z,16.90
2019-05-23T21:25:32.937Z,16.70
2019-05-23T21:28:01.733Z,16.90
2019-05-23T21:30:29.698Z,16.80
2019-05-23T21:32:59.144Z,16.60
2019-05-23T21:35:26.923Z,16.70
2019-05-23T21:37:54.733Z,16.70
2019-05-23T21:40:39.747Z,16.70
2019-05-23T21:43:07.536Z,16.70
2019-05-23T21:45:35.259Z,16.60
2019-05-23T21:48:03.253Z,16.30
2019-05-23T21:50:33.053Z,16.20
2019-05-23T21:53:00.870Z,16.30
2019-05-23T21:55:35.308Z,16.40
2019-05-23T21:58:03.598Z,16.20
2019-05-23T22:01:19.255Z,16.20
2019-05-23T22:03:51.716Z,16.20
2019-05-23T22:06:21.711Z,16.30
2019-05-23T22:08:49.771Z,16.50
2019-05-23T22:11:17.607Z,16.30
2019-05-23T22:13:45.265Z,16.20
2019-05-23T22:16:12.948Z,15.90
2019-05-23T22:18:40.739Z,15.70
2019-05-23T22:21:08.698Z,15.50
2019-05-23T22:23:36.438Z,15.50
2019-05-23T22:26:04.097Z,15.60
2019-05-23T22:28:32.871Z,15.40
2019-05-23T22:31:00.512Z,15.40
2019-05-23T22:33:30.026Z,15.50
2019-05-23T22:35:58.865Z,15.60
2019-05-23T22:38:27.018Z,15.70
2019-05-23T22:40:54.802Z,15.90
2019-05-23T22:43:22.572Z,16.20
2019-05-23T22:45:51.377Z,16.40
2019-05-23T22:48:19.070Z,16.50
2019-05-23T22:50:46.722Z,16.40
2019-05-23T22:53:14.484Z,16.20
2019-05-23T22:55:42.269Z,16.10
2019-05-23T22:58:09.927Z,15.90
2019-05-23T23:00:39.455Z,15.90
2019-05-23T23:03:07.126Z,15.80
2019-05-23T23:05:34.811Z,15.70
2019-05-23T23:08:02.567Z,15.60
2019-05-23T23:10:30.201Z,15.40
2019-05-23T23:12:57.936Z,15.30
2019-05-23T23:15:27.253Z,15.40
2019-05-23T23:17:55.021Z,15.40
2019-05-23T23:20:22.680Z,15.50
2019-05-23T23:22:50.359Z,15.30
2019-05-23T23:25:18.218Z,15.20
2019-05-23T23:27:45.887Z,15.10
2019-05-23T23:30:16.602Z,15.20
2019-05-23T23:32:44.273Z,15.10
2019-05-23T23:35:12.126Z,14.90
2019-05-23T23:37:39.827Z,14.90
2019-05-23T23:40:09.432Z,15.00
2019-05-23T23:42:37.599Z,15.10
2019-05-23T23:45:23.686Z,15.10
2019-05-23T23:48:09.492Z,15.10
2019-05-23T23:50:55.379Z,15.00
2019-05-23T23:53:42.838Z,14.90
2019-05-23T23:56:28.606Z,14.90
2019-05-23T23:58:55.734Z,14.80
